Ruskin, Nebraska
Current Conditions -  °F | °C
As of 7:15 PM on Friday 19 Dec 2014 (Local Time) from KHJH Reporting Station
Haze Haze  
Wind Chill: 27°   Ceiling: 700
Heat Index: 32°   Visibility: 4mi
Dew Point: 31°   Wind: 6mph
Humidity: 93%   Direction: 190°S
Pressure: 30.11"   Gusts: NA
Location:  40.14°N, 97.87°W
Report Text: KHJH 200115Z AUTO 19005KT 4SM BR OVC007 00/M01 A3011 RMK AO2 T00021008
Loading
Personal Weather Stations






























Interactive Weather Map New forecast layout! Learn more

10-Day Weather Forecast

Advertisements
Track Severe Weather on mobile